createdAt,value
2023-04-15T00:01:46.957Z,0.57
2023-04-15T00:04:13.537Z,0.73
2023-04-15T00:06:40.075Z,0.68
2023-04-15T00:09:06.521Z,0.77
2023-04-15T00:11:33.013Z,0.73
2023-04-15T00:14:00.702Z,0.60
2023-04-15T00:16:27.151Z,0.80
2023-04-15T00:18:53.580Z,0.75
2023-04-15T00:21:20.054Z,0.57
2023-04-15T00:23:49.674Z,0.90
2023-04-15T00:26:16.178Z,0.60
2023-04-15T00:28:42.573Z,0.52
2023-04-15T00:31:09.700Z,0.90
2023-04-15T00:33:36.701Z,0.55
2023-04-15T00:36:03.653Z,0.75
2023-04-15T00:38:30.040Z,0.70
2023-04-15T00:40:56.574Z,0.90
2023-04-15T00:43:23.010Z,0.60
2023-04-15T00:45:50.060Z,0.60
2023-04-15T00:48:16.566Z,0.70
2023-04-15T00:50:42.968Z,0.50
2023-04-15T00:53:09.406Z,0.70
2023-04-15T00:55:36.146Z,0.60
2023-04-15T00:58:02.563Z,0.70
2023-04-15T01:00:30.324Z,0.70
2023-04-15T01:02:57.024Z,0.68
2023-04-15T01:05:23.580Z,0.60
2023-04-15T01:07:50.066Z,0.85
2023-04-15T01:10:16.512Z,0.70
2023-04-15T01:12:43.205Z,0.63
2023-04-15T01:15:10.936Z,0.70
2023-04-15T01:17:37.481Z,0.90
2023-04-15T01:20:05.164Z,0.77
2023-04-15T01:22:31.580Z,0.77
2023-04-15T01:25:09.549Z,0.80
2023-04-15T01:27:36.416Z,0.55
2023-04-15T01:30:05.191Z,0.45
2023-04-15T01:32:31.823Z,0.73
2023-04-15T01:34:58.287Z,0.70
2023-04-15T01:37:24.832Z,0.70
2023-04-15T01:39:51.561Z,1.05
2023-04-15T01:42:17.966Z,0.75
2023-04-15T01:44:44.399Z,0.73
2023-04-15T01:47:10.839Z,0.75
2023-04-15T01:49:37.453Z,0.60
2023-04-15T01:52:03.913Z,0.68
2023-04-15T01:54:30.641Z,0.75
2023-04-15T01:56:57.064Z,0.80
2023-04-15T01:59:23.505Z,0.70
2023-04-15T02:01:49.924Z,0.80
2023-04-15T02:04:16.810Z,0.80
2023-04-15T02:06:43.775Z,0.80
2023-04-15T02:09:10.514Z,0.65
2023-04-15T02:11:37.530Z,0.80
2023-04-15T02:14:07.078Z,0.65
2023-04-15T02:16:33.890Z,0.50
2023-04-15T02:19:00.922Z,0.65
2023-04-15T02:21:27.628Z,0.70
2023-04-15T02:23:54.189Z,0.60
2023-04-15T02:26:20.677Z,0.90
2023-04-15T02:28:47.186Z,0.90
2023-04-15T02:31:13.590Z,0.75
2023-04-15T02:33:40.078Z,0.77
2023-04-15T02:36:07.809Z,0.70
2023-04-15T02:38:34.210Z,1.00
2023-04-15T02:41:00.637Z,0.80
2023-04-15T02:43:27.115Z,0.70
2023-04-15T02:45:53.717Z,0.80
2023-04-15T02:48:20.516Z,0.90
2023-04-15T02:50:47.765Z,0.90
2023-04-15T02:53:14.611Z,0.70
2023-04-15T02:55:41.572Z,0.70
2023-04-15T02:58:08.015Z,0.68
2023-04-15T03:00:34.779Z,1.00
2023-04-15T03:03:03.336Z,0.85
2023-04-15T03:05:29.926Z,0.70
2023-04-15T03:07:56.329Z,0.90
2023-04-15T03:10:22.820Z,0.60
2023-04-15T03:12:49.354Z,0.80
2023-04-15T03:15:16.498Z,0.80
2023-04-15T03:17:42.937Z,0.70
2023-04-15T03:20:10.268Z,0.60
2023-04-15T03:22:36.681Z,0.60
2023-04-15T03:25:03.131Z,0.70
2023-04-15T03:27:29.532Z,0.70
2023-04-15T03:29:56.740Z,0.98
2023-04-15T03:32:23.214Z,0.77
2023-04-15T03:34:49.673Z,0.85
2023-04-15T03:37:16.424Z,0.70
2023-04-15T03:39:42.973Z,0.80
2023-04-15T03:42:09.502Z,0.80
2023-04-15T03:44:36.095Z,0.50
2023-04-15T03:47:02.510Z,0.70
2023-04-15T03:49:28.966Z,0.77
2023-04-15T03:51:55.735Z,0.95
2023-04-15T03:54:22.161Z,0.70
2023-04-15T03:56:48.596Z,0.85
2023-04-15T03:59:15.008Z,0.85
2023-04-15T04:01:41.470Z,0.80
2023-04-15T04:04:08.002Z,0.80
2023-04-15T04:06:34.477Z,0.65
2023-04-15T04:09:01.782Z,0.70
2023-04-15T04:11:28.337Z,0.65
2023-04-15T04:13:54.727Z,0.90
2023-04-15T04:16:21.249Z,0.63
2023-04-15T04:18:47.767Z,0.60
2023-04-15T04:21:14.167Z,0.60
2023-04-15T04:23:40.650Z,0.80
2023-04-15T04:26:07.290Z,0.70
2023-04-15T04:28:35.107Z,0.70
2023-04-15T04:31:01.681Z,0.85
2023-04-15T04:33:28.099Z,0.70
2023-04-15T04:35:54.499Z,0.77
2023-04-15T04:38:20.962Z,0.60
2023-04-15T04:40:47.367Z,0.98
2023-04-15T04:43:14.788Z,0.65
2023-04-15T04:45:41.257Z,0.82
2023-04-15T04:48:08.667Z,0.80
2023-04-15T04:50:35.293Z,0.90
2023-04-15T04:53:01.841Z,0.60
2023-04-15T04:55:28.311Z,0.75
2023-04-15T04:57:54.726Z,0.63
2023-04-15T05:00:21.277Z,0.50
2023-04-15T05:02:47.841Z,0.80
2023-04-15T05:05:14.509Z,0.68
2023-04-15T05:07:41.060Z,0.77
2023-04-15T05:10:08.109Z,0.60
2023-04-15T05:12:34.591Z,0.60
2023-04-15T05:15:01.037Z,0.70
2023-04-15T05:17:27.647Z,0.77
2023-04-15T05:19:54.167Z,1.02
2023-04-15T05:22:20.589Z,0.50
2023-04-15T05:24:46.991Z,0.65
2023-04-15T05:27:13.531Z,1.02
2023-04-15T05:29:39.953Z,0.90
2023-04-15T05:32:06.637Z,0.63
2023-04-15T05:34:33.051Z,0.70
2023-04-15T05:36:59.469Z,0.88
2023-04-15T05:39:26.515Z,0.70
2023-04-15T05:41:53.191Z,0.70
2023-04-15T05:44:19.580Z,0.60
2023-04-15T05:46:46.002Z,0.60
2023-04-15T05:49:12.447Z,0.80
2023-04-15T05:51:38.851Z,0.60
2023-04-15T05:54:05.668Z,0.85
2023-04-15T05:56:32.324Z,0.60
2023-04-15T05:58:58.842Z,0.60
2023-04-15T06:01:26.036Z,0.63
2023-04-15T06:03:52.531Z,0.63
2023-04-15T06:06:19.077Z,0.77
2023-04-15T06:08:46.180Z,0.90
2023-04-15T06:11:12.614Z,0.68
2023-04-15T06:13:38.999Z,1.10
2023-04-15T06:16:05.628Z,0.80
2023-04-15T06:18:32.077Z,0.80
2023-04-15T06:20:58.466Z,0.80
2023-04-15T06:23:26.413Z,0.85
2023-04-15T06:25:54.000Z,0.90
2023-04-15T06:28:20.433Z,0.85
2023-04-15T06:30:46.841Z,0.70
2023-04-15T06:33:13.306Z,0.75
2023-04-15T06:35:40.427Z,1.00
2023-04-15T06:38:07.034Z,0.85
2023-04-15T06:40:33.479Z,0.70
2023-04-15T06:42:59.908Z,0.80
2023-04-15T06:45:26.523Z,0.90
2023-04-15T06:47:53.022Z,0.70
2023-04-15T06:50:19.473Z,0.90
2023-04-15T06:52:46.004Z,1.00
2023-04-15T06:55:12.586Z,0.90
2023-04-15T06:57:39.002Z,0.98
2023-04-15T07:00:05.965Z,1.10
2023-04-15T07:02:32.577Z,1.10
2023-04-15T07:04:59.047Z,0.90
2023-04-15T07:07:25.606Z,0.80
2023-04-15T07:09:53.622Z,1.20
2023-04-15T07:12:20.306Z,0.82
2023-04-15T07:14:46.741Z,1.00
2023-04-15T07:17:13.347Z,0.90
2023-04-15T07:19:39.907Z,0.75
2023-04-15T07:22:06.359Z,1.08
2023-04-15T07:24:32.780Z,1.50
2023-04-15T07:27:00.875Z,1.10
2023-04-15T07:29:27.748Z,1.10
2023-04-15T07:31:55.217Z,0.90
2023-04-15T07:34:31.485Z,1.40
2023-04-15T07:37:02.332Z,1.45
2023-04-15T07:39:32.680Z,1.00
2023-04-15T07:42:02.548Z,1.13
2023-04-15T07:47:01.477Z,0.82
2023-04-15T07:49:31.842Z,1.00
2023-04-15T07:52:01.115Z,0.88
2023-04-15T07:54:28.107Z,0.98
2023-04-15T07:56:57.783Z,0.80
2023-04-15T07:59:25.772Z,1.10
2023-04-15T08:01:55.875Z,0.93
2023-04-15T08:04:25.983Z,1.25
2023-04-15T08:06:58.806Z,1.23
2023-04-15T08:09:26.631Z,0.90
2023-04-15T08:11:53.619Z,1.02
2023-04-15T08:14:25.869Z,1.25
2023-04-15T08:16:55.186Z,1.00
2023-04-15T08:19:21.850Z,0.73
2023-04-15T08:21:48.901Z,0.60
2023-04-15T08:24:15.686Z,0.70
2023-04-15T08:26:42.988Z,0.70
2023-04-15T08:29:12.832Z,0.50
2023-04-15T08:31:44.982Z,0.30
2023-04-15T08:34:12.953Z,0.50
2023-04-15T08:36:42.931Z,0.52
2023-04-15T08:41:55.076Z,0.47
2023-04-15T08:44:26.243Z,0.50
2023-04-15T08:46:56.835Z,0.60
2023-04-15T08:49:29.590Z,0.60
2023-04-15T08:54:31.732Z,0.50
2023-04-15T08:57:02.758Z,0.70
2023-04-15T08:59:40.699Z,0.80
2023-04-15T09:02:15.557Z,0.60
2023-04-15T09:04:45.593Z,0.80
2023-04-15T09:09:53.968Z,0.75
2023-04-15T09:12:23.835Z,0.52
2023-04-15T09:14:53.833Z,0.60
2023-04-15T09:19:51.283Z,0.43
2023-04-15T09:22:17.786Z,0.63
2023-04-15T09:24:44.479Z,1.00
2023-04-15T09:27:11.344Z,0.60
2023-04-15T09:29:37.757Z,0.80
2023-04-15T09:32:13.928Z,1.00
2023-04-15T09:34:40.583Z,0.70
2023-04-15T09:37:08.089Z,0.80
2023-04-15T09:40:02.664Z,1.15
2023-04-15T09:42:29.145Z,1.20
2023-04-15T09:44:55.916Z,0.98
2023-04-15T09:47:32.051Z,1.10
2023-04-15T09:49:59.286Z,1.30
2023-04-15T09:52:26.007Z,0.88
2023-04-15T09:54:53.539Z,1.00
2023-04-15T09:57:19.974Z,1.00
2023-04-15T09:59:46.374Z,0.98
2023-04-15T10:02:12.822Z,0.68
2023-04-15T10:04:40.570Z,0.80
2023-04-15T10:07:08.577Z,0.70
2023-04-15T10:09:36.118Z,0.80
2023-04-15T10:12:04.154Z,0.93
2023-04-15T10:14:33.376Z,0.77
2023-04-15T10:17:01.623Z,0.65
2023-04-15T10:19:28.023Z,0.70
2023-04-15T10:21:54.766Z,0.50
2023-04-15T10:24:21.199Z,0.47
2023-04-15T10:26:47.591Z,0.60
2023-04-15T10:29:14.125Z,0.50
2023-04-15T10:31:40.559Z,0.43
2023-04-15T10:34:07.155Z,0.60
2023-04-15T10:36:33.850Z,0.40
2023-04-15T10:39:00.233Z,0.40
2023-04-15T10:41:31.013Z,0.50
2023-04-15T10:44:01.751Z,0.52
2023-04-15T10:46:39.998Z,0.30
2023-04-15T10:49:16.927Z,0.40
2023-04-15T10:51:48.019Z,0.50
2023-04-15T10:54:14.867Z,0.40
2023-04-15T10:56:48.661Z,0.40
2023-04-15T10:59:16.224Z,0.40
2023-04-15T11:01:57.053Z,0.50
2023-04-15T11:04:51.259Z,0.28
2023-04-15T11:07:39.511Z,0.30
2023-04-15T11:10:18.513Z,0.20
2023-04-15T11:12:45.391Z,0.40
2023-04-15T11:15:25.263Z,0.20
2023-04-15T11:17:51.916Z,0.20
2023-04-15T11:20:18.521Z,0.20
2023-04-15T11:22:48.891Z,0.25
2023-04-15T11:25:26.069Z,0.30
2023-04-15T11:27:54.117Z,0.30
2023-04-15T11:30:25.091Z,0.43
2023-04-15T11:32:52.538Z,0.35
2023-04-15T11:35:19.014Z,0.50
2023-04-15T11:37:45.953Z,0.25
2023-04-15T11:40:13.109Z,0.35
2023-04-15T11:42:49.257Z,0.30
2023-04-15T11:45:16.529Z,0.20
2023-04-15T11:47:43.016Z,0.35
2023-04-15T11:50:22.322Z,0.30
2023-04-15T11:52:59.016Z,0.20
2023-04-15T11:55:25.622Z,0.20
2023-04-15T11:58:30.615Z,0.40
2023-04-15T12:00:57.897Z,0.22
2023-04-15T12:03:28.946Z,0.28
2023-04-15T12:06:21.194Z,0.22
2023-04-15T12:09:06.658Z,0.20
2023-04-15T12:11:37.963Z,0.40
2023-04-15T12:14:22.878Z,0.40
2023-04-15T12:16:58.381Z,0.40
2023-04-15T12:19:26.840Z,0.30
2023-04-15T12:21:58.862Z,0.40
2023-04-15T12:24:26.638Z,0.43
2023-04-15T12:26:54.740Z,0.60
2023-04-15T12:29:24.733Z,0.50
2023-04-15T12:34:36.663Z,0.30
2023-04-15T12:37:04.135Z,0.25
2023-04-15T12:39:32.395Z,0.20
2023-04-15T12:42:00.065Z,0.20
2023-04-15T12:44:27.093Z,0.20
2023-04-15T12:52:58.066Z,0.20
2023-04-15T12:55:36.731Z,0.20
2023-04-15T12:58:03.732Z,0.10
2023-04-15T13:06:14.607Z,0.17
2023-04-15T13:08:58.351Z,0.20
2023-04-15T13:11:50.916Z,0.30
2023-04-15T13:17:12.340Z,0.20
2023-04-15T13:19:55.192Z,0.28
2023-04-15T13:22:44.224Z,0.20
2023-04-15T13:25:32.201Z,0.27
2023-04-15T13:36:26.611Z,0.30
2023-04-15T13:41:40.950Z,0.40
2023-04-15T13:44:38.321Z,0.30
2023-04-15T13:47:16.962Z,0.25
2023-04-15T13:50:07.580Z,0.50
2023-04-15T13:52:40.806Z,0.32
2023-04-15T13:55:23.751Z,0.40
2023-04-15T13:58:12.349Z,0.30
2023-04-15T14:00:38.793Z,0.40
2023-04-15T14:03:05.994Z,0.30
2023-04-15T14:05:38.796Z,0.30
2023-04-15T14:08:09.143Z,0.17
2023-04-15T14:10:35.638Z,0.20
2023-04-15T14:13:02.052Z,0.32
2023-04-15T14:15:28.516Z,0.20
2023-04-15T14:23:11.872Z,0.28
2023-04-15T14:42:02.144Z,0.15
2023-04-15T15:05:54.526Z,0.20
2023-04-15T15:11:10.111Z,0.20
2023-04-15T15:13:39.992Z,0.20
2023-04-15T15:16:06.665Z,0.20
2023-04-15T15:18:33.119Z,0.20
2023-04-15T15:20:59.529Z,0.60
2023-04-15T15:23:25.936Z,0.57
2023-04-15T15:25:52.349Z,0.63
2023-04-15T15:28:18.803Z,0.50
2023-04-15T15:30:45.282Z,0.30
2023-04-15T15:33:11.718Z,0.22
2023-04-15T15:35:38.135Z,0.30
2023-04-15T15:38:04.599Z,0.20
2023-04-15T15:40:31.395Z,0.10
2023-04-15T15:42:57.818Z,0.20
2023-04-15T15:45:24.254Z,0.20
2023-04-15T15:47:50.729Z,0.20
2023-04-15T15:50:17.213Z,0.20
2023-04-15T15:52:43.648Z,0.20
2023-04-15T15:55:10.153Z,0.20
2023-04-15T15:57:36.600Z,0.20
2023-04-15T16:02:59.886Z,0.20
2023-04-15T16:05:19.370Z,0.30
2023-04-15T16:07:45.902Z,0.20
2023-04-15T16:10:13.982Z,0.20
2023-04-15T16:12:41.330Z,0.20
2023-04-15T16:15:09.471Z,0.20
2023-04-15T16:17:35.966Z,0.20
2023-04-15T16:20:05.364Z,0.20
2023-04-15T16:22:33.059Z,0.20
2023-04-15T16:25:00.541Z,0.20
2023-04-15T16:30:17.438Z,0.10
2023-04-15T16:32:43.883Z,0.20
2023-04-15T16:35:11.487Z,0.20
2023-04-15T16:37:37.896Z,0.30
2023-04-15T16:40:05.001Z,0.20
2023-04-15T16:42:31.471Z,0.20
2023-04-15T16:44:57.952Z,0.35
2023-04-15T16:47:24.475Z,0.20
2023-04-15T16:49:51.036Z,0.20
2023-04-15T16:52:17.804Z,0.38
2023-04-15T16:54:44.248Z,0.20
2023-04-15T16:57:10.744Z,0.20
2023-04-15T16:59:37.737Z,0.20
2023-04-15T17:02:04.173Z,0.20
2023-04-15T17:04:30.680Z,0.10
2023-04-15T17:06:57.216Z,0.20
2023-04-15T17:09:23.615Z,0.30
2023-04-15T17:11:50.056Z,0.20
2023-04-15T17:14:16.478Z,0.30
2023-04-15T17:16:43.159Z,0.20
2023-04-15T17:19:09.617Z,0.30
2023-04-15T17:21:36.047Z,0.40
2023-04-15T17:24:02.438Z,0.20
2023-04-15T17:26:28.830Z,0.20
2023-04-15T17:28:55.262Z,0.20
2023-04-15T17:31:21.718Z,0.20
2023-04-15T17:33:56.411Z,0.30
2023-04-15T17:36:32.604Z,0.30
2023-04-15T17:38:59.030Z,0.30
2023-04-15T17:41:25.553Z,0.30
2023-04-15T17:43:51.970Z,0.40
2023-04-15T17:46:19.319Z,0.50
2023-04-15T17:48:46.321Z,0.75
2023-04-15T17:51:13.205Z,0.60
2023-04-15T17:53:39.601Z,0.75
2023-04-15T17:56:06.027Z,0.60
2023-04-15T17:58:32.424Z,0.68
2023-04-15T18:00:58.863Z,0.60
2023-04-15T18:03:26.251Z,0.43
2023-04-15T18:05:52.879Z,0.40
2023-04-15T18:08:19.668Z,0.40
2023-04-15T18:10:46.144Z,0.40
2023-04-15T18:13:12.628Z,0.40
2023-04-15T18:15:39.088Z,0.30
2023-04-15T18:18:05.639Z,0.50
2023-04-15T18:20:33.430Z,0.40
2023-04-15T18:22:59.860Z,0.30
2023-04-15T18:25:26.324Z,0.30
2023-04-15T18:27:53.063Z,0.40
2023-04-15T18:30:19.462Z,0.40
2023-04-15T18:32:46.205Z,0.30
2023-04-15T18:35:13.006Z,0.32
2023-04-15T18:37:39.458Z,0.40
2023-04-15T18:40:07.176Z,1.20
2023-04-15T18:42:33.805Z,1.40
2023-04-15T18:45:00.414Z,1.00
2023-04-15T18:47:27.444Z,0.60
2023-04-15T18:49:55.059Z,0.32
2023-04-15T18:52:23.162Z,0.35
2023-04-15T18:54:49.655Z,0.60
2023-04-15T18:57:23.772Z,0.35
2023-04-15T18:59:57.778Z,0.30
2023-04-15T19:02:24.633Z,0.52
2023-04-15T19:04:51.096Z,0.90
2023-04-15T19:07:17.806Z,0.73
2023-04-15T19:09:44.877Z,0.60
2023-04-15T19:12:11.311Z,0.70
2023-04-15T19:14:37.729Z,0.50
2023-04-15T19:17:05.862Z,0.60
2023-04-15T19:19:32.493Z,0.57
2023-04-15T19:22:01.975Z,0.50
2023-04-15T19:26:57.943Z,0.35
2023-04-15T19:29:24.642Z,0.60
2023-04-15T19:31:51.094Z,0.63
2023-04-15T19:34:17.528Z,0.80
2023-04-15T19:36:44.075Z,0.60
2023-04-15T19:39:10.501Z,0.50
2023-04-15T19:41:38.551Z,0.60
2023-04-15T19:44:05.601Z,1.20
2023-04-15T19:46:32.156Z,1.50
2023-04-15T19:48:59.353Z,1.30
2023-04-15T19:51:26.794Z,1.15
2023-04-15T19:53:53.966Z,0.80
2023-04-15T19:56:21.226Z,0.70
2023-04-15T19:58:52.583Z,0.70
2023-04-15T20:01:20.210Z,0.90
2023-04-15T20:03:46.870Z,0.90
2023-04-15T20:06:14.392Z,1.00
2023-04-15T20:08:40.967Z,0.82
2023-04-15T20:11:08.720Z,0.80
2023-04-15T20:13:35.133Z,0.60
2023-04-15T20:16:02.479Z,0.60
2023-04-15T20:18:28.998Z,0.60
2023-04-15T20:20:55.402Z,0.70
2023-04-15T20:23:21.826Z,0.50
2023-04-15T20:25:48.236Z,0.57
2023-04-15T20:28:15.856Z,0.60
2023-04-15T20:30:43.271Z,0.50
2023-04-15T20:33:09.746Z,0.60
2023-04-15T20:35:36.523Z,0.60
2023-04-15T20:38:04.322Z,0.47
2023-04-15T20:40:33.476Z,0.60
2023-04-15T20:43:00.222Z,0.50
2023-04-15T20:45:27.914Z,0.50
2023-04-15T20:47:55.934Z,0.50
2023-04-15T20:50:22.404Z,0.60
2023-04-15T20:52:48.847Z,0.60
2023-04-15T20:55:15.301Z,0.88
2023-04-15T20:57:41.704Z,1.00
2023-04-15T21:00:10.754Z,0.70
2023-04-15T21:02:37.675Z,0.80
2023-04-15T21:05:04.511Z,0.75
2023-04-15T21:07:30.953Z,0.60
2023-04-15T21:09:57.378Z,0.55
2023-04-15T21:12:23.785Z,0.55
2023-04-15T21:14:50.309Z,0.60
2023-04-15T21:17:16.727Z,0.40
2023-04-15T21:19:43.201Z,0.65
2023-04-15T21:22:09.601Z,0.70
2023-04-15T21:24:36.818Z,0.85
2023-04-15T21:27:03.331Z,0.90
2023-04-15T21:29:29.727Z,0.88
2023-04-15T21:31:56.209Z,0.90
2023-04-15T21:34:22.662Z,0.93
2023-04-15T21:36:49.082Z,0.60
2023-04-15T21:39:15.524Z,0.68
2023-04-15T21:41:42.122Z,0.50
2023-04-15T21:44:08.605Z,0.60
2023-04-15T21:46:35.545Z,0.65
2023-04-15T21:49:02.894Z,0.50
2023-04-15T21:51:29.378Z,0.50
2023-04-15T21:53:55.944Z,0.47
2023-04-15T21:56:24.004Z,0.50
2023-04-15T21:58:51.028Z,0.43
2023-04-15T22:01:17.541Z,0.50
2023-04-15T22:03:44.298Z,0.70
2023-04-15T22:06:11.075Z,0.75
2023-04-15T22:08:48.280Z,0.50
2023-04-15T22:11:30.114Z,0.60
2023-04-15T22:13:57.237Z,0.60
2023-04-15T22:16:25.500Z,0.60
2023-04-15T22:18:52.188Z,0.65
2023-04-15T22:21:18.589Z,0.60
2023-04-15T22:23:47.156Z,0.50
2023-04-15T22:26:13.586Z,0.60
2023-04-15T22:28:40.008Z,0.60
2023-04-15T22:31:06.501Z,0.55
2023-04-15T22:33:33.703Z,0.70
2023-04-15T22:36:00.141Z,0.70
2023-04-15T22:38:26.692Z,0.60
2023-04-15T22:40:53.910Z,0.60
2023-04-15T22:43:20.377Z,0.70
2023-04-15T22:45:50.495Z,0.75
2023-04-15T22:48:17.936Z,0.63
2023-04-15T22:50:44.401Z,0.60
2023-04-15T22:53:10.864Z,0.70
2023-04-15T22:55:37.295Z,0.60
2023-04-15T22:58:03.747Z,0.60
2023-04-15T23:00:30.250Z,0.85
2023-04-15T23:02:56.732Z,0.60
2023-04-15T23:05:23.389Z,0.57
2023-04-15T23:07:49.870Z,0.77
2023-04-15T23:10:16.362Z,0.70
2023-04-15T23:12:42.792Z,0.73
2023-04-15T23:15:09.446Z,0.65
2023-04-15T23:17:35.881Z,0.70
2023-04-15T23:20:02.649Z,0.57
2023-04-15T23:22:29.062Z,0.90
2023-04-15T23:24:55.478Z,0.73
2023-04-15T23:27:22.750Z,0.85
2023-04-15T23:29:49.151Z,0.70
2023-04-15T23:32:15.548Z,0.88
2023-04-15T23:34:42.053Z,0.70
2023-04-15T23:37:08.469Z,0.70
2023-04-15T23:39:34.875Z,0.75
2023-04-15T23:42:01.674Z,0.80
2023-04-15T23:44:28.213Z,0.70
2023-04-15T23:46:54.690Z,0.80
2023-04-15T23:49:21.198Z,0.85
2023-04-15T23:51:47.619Z,0.70
2023-04-15T23:54:14.643Z,0.70
2023-04-15T23:56:41.036Z,1.00
2023-04-15T23:59:34.093Z,0.70
